Orbital elements of PSLV DEB
| Launched | 24 February 2013 |
| Flight ended | – |
| Launch site | Satish Dhawan Space Centre, India (Formerly Sriharikota Launching Range) |
| Owner | India |
| NORAD ID | 39094 |
| Date fetched |
Epoch osculation |
Inc. [°] |
Ecc. | RA asc node [hr] |
Arg Peri. [°] |
Mean anom [°] |
Mean motion [rev/day] |
Abs. mag |
| Date fetched |
Epoch osculation |
Inc. [°] |
Ecc. | RA asc node [hr] |
Arg Peri. [°] |
Mean anom [°] |
Mean motion [rev/day] |
Abs. mag |
| 2026 May 08 17:57 | 2026 May 05 10:29:17 | 98.3275 | 0.00078 | 21.0359 | 296.0916 | 63.9471 | 14.44370 | 7.500 |
| 2026 May 07 17:58 | 2026 May 05 10:29:17 | 98.3275 | 0.00078 | 21.0359 | 296.0916 | 63.9471 | 14.44370 | 7.500 |
| 2026 May 06 17:57 | 2026 May 05 10:29:17 | 98.3275 | 0.00078 | 21.0359 | 296.0916 | 63.9471 | 14.44370 | 7.500 |
| 2026 May 05 17:57 | 2026 May 05 10:29:17 | 98.3275 | 0.00078 | 21.0359 | 296.0916 | 63.9471 | 14.44370 | 7.500 |
| 2026 May 04 17:57 | 2026 Apr 30 12:26:37 | 98.3277 | 0.00080 | 20.7148 | 312.9942 | 63.9471 | 14.44370 | 7.500 |
| 2026 May 03 17:57 | 2026 Apr 30 12:26:37 | 98.3277 | 0.00080 | 20.7148 | 312.9942 | 63.9471 | 14.44370 | 7.500 |
| 2026 May 02 17:57 | 2026 Apr 30 12:26:37 | 98.3277 | 0.00080 | 20.7148 | 312.9942 | 63.9471 | 14.44370 | 7.500 |
| 2026 May 01 17:56 | 2026 Apr 30 12:26:37 | 98.3277 | 0.00080 | 20.7148 | 312.9942 | 63.9471 | 14.44370 | 7.500 |
| 2026 Apr 30 17:56 | 2026 Apr 30 12:26:37 | 98.3277 | 0.00080 | 20.7148 | 312.9942 | 63.9471 | 14.44370 | 7.500 |
| 2026 Apr 29 17:57 | 2026 Apr 24 11:47:45 | 98.3281 | 0.00083 | 20.3213 | 332.8360 | 63.9471 | 14.44370 | 7.500 |
| 2026 Apr 28 17:56 | 2026 Apr 24 11:47:45 | 98.3281 | 0.00083 | 20.3213 | 332.8360 | 63.9471 | 14.44370 | 7.500 |
| 2026 Apr 27 17:58 | 2026 Apr 24 11:47:45 | 98.3281 | 0.00083 | 20.3213 | 332.8360 | 63.9471 | 14.44370 | 7.500 |
| 2026 Apr 26 17:58 | 2026 Apr 24 11:47:45 | 98.3281 | 0.00083 | 20.3213 | 332.8360 | 63.9471 | 14.44370 | 7.500 |
| 2026 Apr 25 17:58 | 2026 Apr 24 11:47:45 | 98.3281 | 0.00083 | 20.3213 | 332.8360 | 63.9471 | 14.44370 | 7.500 |
| 2026 Apr 24 17:59 | 2026 Apr 24 11:47:45 | 98.3281 | 0.00083 | 20.3213 | 332.8360 | 63.9471 | 14.44370 | 7.500 |
| 2026 Apr 23 17:57 | 2026 Apr 19 12:05:10 | 98.3281 | 0.00086 | 19.9956 | 348.6494 | 63.9471 | 14.44370 | 7.500 |
| 2026 Apr 22 17:57 | 2026 Apr 19 12:05:10 | 98.3281 | 0.00086 | 19.9956 | 348.6494 | 63.9471 | 14.44370 | 7.500 |
| 2026 Apr 21 17:57 | 2026 Apr 19 12:05:10 | 98.3281 | 0.00086 | 19.9956 | 348.6494 | 63.9471 | 14.44370 | 7.500 |
| 2026 Apr 20 17:57 | 2026 Apr 19 12:05:10 | 98.3281 | 0.00086 | 19.9956 | 348.6494 | 63.9471 | 14.44370 | 7.500 |
| 2026 Apr 19 17:58 | 2026 Apr 19 12:05:10 | 98.3281 | 0.00086 | 19.9956 | 348.6494 | 63.9471 | 14.44370 | 7.500 |
| 2026 Apr 18 17:56 | 2026 Apr 12 23:47:50 | 98.3284 | 0.00091 | 19.5704 | 8.3974 | 63.9471 | 14.44370 | 7.500 |
| 2026 Apr 16 17:57 | 2026 Apr 12 23:47:50 | 98.3284 | 0.00091 | 19.5704 | 8.3974 | 63.9471 | 14.44370 | 7.500 |
| 2026 Apr 14 17:57 | 2026 Apr 12 23:47:50 | 98.3284 | 0.00091 | 19.5704 | 8.3974 | 63.9471 | 14.44370 | 7.500 |
| 2026 Apr 13 17:57 | 2026 Apr 12 23:47:50 | 98.3284 | 0.00091 | 19.5704 | 8.3974 | 63.9471 | 14.44370 | 7.500 |
| 2026 Apr 12 17:57 | 2026 Apr 08 11:43:27 | 98.3285 | 0.00094 | 19.2764 | 21.6294 | 63.9471 | 14.44370 | 7.500 |
| 2026 Apr 11 17:57 | 2026 Apr 08 11:43:27 | 98.3285 | 0.00094 | 19.2764 | 21.6294 | 63.9471 | 14.44370 | 7.500 |